Algona, Iowa
Current Conditions -  °F | °C
As of 1:35 PM on Friday 24 Oct 2014 (Local Time) from KAXA Reporting Station
Clear Clear  
Wind Chill: 68°   Ceiling: Unl
Heat Index: 68°   Visibility: 10mi
Dew Point: 57°   Wind: 9mph
Humidity: 68%   Direction: 240°WSW
Pressure: 29.88"   Gusts: NA
Location:  43.07°N, 94.23°W
Report Text: KAXA 241835Z AUTO 24008KT 10SM CLR 20/14 A2988 RMK AO2
Loading
Personal Weather Stations






























Interactive Weather Map
Tropical Storm Tracking
New forecast layout! Learn more

10-Day Weather Forecast

Advertisements
Track Severe Weather on mobile